Hauptseite
METAR-TAF:

METAR-TAF

Flughäfen :

Flughafen Sanikiluaq

Sanikiluaq, Nunavut, Kanada

Breite: 56-32N, Länge: 079-15W, Höhe: 32 m

Beobachtung

Neuester Wetterbericht von vor 4 Stunden und 10 Minuten, um 22:00 UTC
Wind 18 kt aus Nord/Nordost, Böen bis zu 23 kt
Temperatur -3°C
Luftfeuchtigkeit 74%
Luftdruck 1016 hPa
Sichtweite: 24.1 km
Aufgelockert bewölkt in der Höhe von 1200 ft

METAR: CYSK 252200Z 02018G23KT 15SM SCT012 M03/M07 A3001 RMK SC4 LAST OBS/NEXT 281200UTC SLP166

Zeit: 22:10 (02:10 UTC)


TAF: fehlend

Wetterbeobachtungen und Prognosen von mehr als 4000 Flughäfen (METAR und TAF Bericht).

Die verfügbaren Stationen werden durch gelbe und rote Markierungen auf der Karte dargestellt.

Führen Sie die Maus auf sie, um den Namen der Station zu sehen.

Darauf klicken, um die Beobachtung von Wetterbeobachtungen und Prognosen zu sehen.

Um die Karte zu ändern : klicken Sie auf den grünen Tasten mit einem schwarzen Kreuz Zum Vergrößern, auf den grünen Button mit einem Gedankenstrich zu verkleinern, oder auf die grünen Pfeile für benachbarte Karten.


METAR-TAF: